sensor_id;sensor_type;location;lat;lon;timestamp;pressure;altitude;pressure_sealevel;temperature;humidity
21664;BME280;10993;52.510;13.456;2023-03-11T00:00:23;56617.47;;;-146.93;89.77
21664;BME280;10993;52.510;13.456;2023-03-11T00:05:26;56649.88;;;-146.93;89.44
21664;BME280;10993;52.510;13.456;2023-03-11T00:10:30;56593.19;;;-146.93;88.81
21664;BME280;10993;52.510;13.456;2023-03-11T00:15:31;56666.06;;;-146.93;88.81
21664;BME280;10993;52.510;13.456;2023-03-11T00:20:33;56666.06;;;-146.93;88.45
21664;BME280;10993;52.510;13.456;2023-03-11T00:25:37;56690.38;;;-146.93;89.48
21664;BME280;10993;52.510;13.456;2023-03-11T00:30:38;56674.19;;;-146.93;90.63
21664;BME280;10993;52.510;13.456;2023-03-11T00:35:39;56662.03;;;-146.93;89.77
21664;BME280;10993;52.510;13.456;2023-03-11T00:40:42;57356.59;;;-146.93;89.48
21664;BME280;10993;52.510;13.456;2023-03-11T00:45:43;57603.66;;;-146.93;89.89
21664;BME280;10993;52.510;13.456;2023-03-11T00:50:44;56678.22;;;-146.93;90.47
21664;BME280;10993;52.510;13.456;2023-03-11T00:55:45;56909.06;;;-146.93;90.51
21664;BME280;10993;52.510;13.456;2023-03-11T01:00:46;56690.38;;;-146.93;91.06
21664;BME280;10993;52.510;13.456;2023-03-11T01:05:46;56678.22;;;-146.93;91.53
21664;BME280;10993;52.510;13.456;2023-03-11T01:10:48;56599.25;;;-146.93;91.00
21664;BME280;10993;52.510;13.456;2023-03-11T01:15:48;56496.00;;;-146.93;91.23
21664;BME280;10993;52.510;13.456;2023-03-11T01:20:49;56587.13;;;-146.93;91.04
21664;BME280;10993;52.510;13.456;2023-03-11T01:25:50;56686.31;;;-146.93;91.93
21664;BME280;10993;52.510;13.456;2023-03-11T01:30:51;56690.38;;;-146.93;91.73
21664;BME280;10993;52.510;13.456;2023-03-11T01:35:51;56670.13;;;-146.93;92.09
21664;BME280;10993;52.510;13.456;2023-03-11T01:40:53;56676.19;;;-146.93;91.64
21664;BME280;10993;52.510;13.456;2023-03-11T01:46:08;56633.69;;;-146.93;92.18
21664;BME280;10993;52.510;13.456;2023-03-11T01:51:09;56670.13;;;-146.93;91.31
21664;BME280;10993;52.510;13.456;2023-03-11T01:56:12;56662.03;;;-146.93;91.45
21664;BME280;10993;52.510;13.456;2023-03-11T02:01:13;56617.47;;;-146.93;92.48
21664;BME280;10993;52.510;13.456;2023-03-11T02:06:15;56686.31;;;-146.93;92.18
21664;BME280;10993;52.510;13.456;2023-03-11T02:11:20;56680.25;;;-146.93;92.43
21664;BME280;10993;52.510;13.456;2023-03-11T02:16:21;56666.06;;;-146.93;92.10
21664;BME280;10993;52.510;13.456;2023-03-11T02:21:23;56686.31;;;-146.93;91.50
21664;BME280;10993;52.510;13.456;2023-03-11T02:26:31;56641.78;;;-146.93;91.67
21664;BME280;10993;52.510;13.456;2023-03-11T02:31:36;56657.97;;;-146.93;91.90
21664;BME280;10993;52.510;13.456;2023-03-11T02:36:40;56700.50;;;-146.93;92.17
21664;BME280;10993;52.510;13.456;2023-03-11T02:41:43;56694.41;;;-146.93;92.36
21664;BME280;10993;52.510;13.456;2023-03-11T02:46:46;56579.00;;;-146.93;91.76
21664;BME280;10993;52.510;13.456;2023-03-11T02:51:46;56674.19;;;-146.93;91.41
21664;BME280;10993;52.510;13.456;2023-03-11T02:56:47;56682.28;;;-146.93;91.65
21664;BME280;10993;52.510;13.456;2023-03-11T03:01:48;56672.16;;;-146.93;91.30
21664;BME280;10993;52.510;13.456;2023-03-11T03:06:49;56672.16;;;-146.93;91.53
21664;BME280;10993;52.510;13.456;2023-03-11T03:11:49;56680.25;;;-146.93;91.55
21664;BME280;10993;52.510;13.456;2023-03-11T03:16:51;56682.28;;;-146.93;91.40
21664;BME280;10993;52.510;13.456;2023-03-11T03:21:51;56712.66;;;-146.93;91.03
21664;BME280;10993;52.510;13.456;2023-03-11T03:26:52;56649.88;;;-146.93;90.58
21664;BME280;10993;52.510;13.456;2023-03-11T03:31:53;56676.19;;;-146.93;90.67
21664;BME280;10993;52.510;13.456;2023-03-11T03:36:54;56682.28;;;-146.93;90.45
21664;BME280;10993;52.510;13.456;2023-03-11T03:41:54;56670.13;;;-146.93;90.80
21664;BME280;10993;52.510;13.456;2023-03-11T03:46:56;56666.06;;;-146.93;90.66
21664;BME280;10993;52.510;13.456;2023-03-11T03:51:56;56682.28;;;-146.93;90.36
21664;BME280;10993;52.510;13.456;2023-03-11T03:56:56;56605.34;;;-146.93;90.07
21664;BME280;10993;52.510;13.456;2023-03-11T04:01:58;56684.31;;;-146.93;90.33
21664;BME280;10993;52.510;13.456;2023-03-11T04:06:59;56662.03;;;-146.93;90.72
21664;BME280;10993;52.510;13.456;2023-03-11T04:11:59;56686.31;;;-146.93;90.99
21664;BME280;10993;52.510;13.456;2023-03-11T04:17:01;56680.25;;;-146.93;90.48
21664;BME280;10993;52.510;13.456;2023-03-11T04:22:01;56674.19;;;-146.93;90.43
21664;BME280;10993;52.510;13.456;2023-03-11T04:27:02;56753.16;;;-146.93;90.89
21664;BME280;10993;52.510;13.456;2023-03-11T04:32:04;56623.56;;;-146.93;90.66
21664;BME280;10993;52.510;13.456;2023-03-11T04:37:05;56704.53;;;-146.93;90.59
21664;BME280;10993;52.510;13.456;2023-03-11T04:42:05;56670.13;;;-146.93;90.44
21664;BME280;10993;52.510;13.456;2023-03-11T04:47:09;56670.13;;;-146.93;90.00
21664;BME280;10993;52.510;13.456;2023-03-11T04:52:10;56657.97;;;-146.93;90.50
21664;BME280;10993;52.510;13.456;2023-03-11T04:57:10;56698.47;;;-146.93;90.42
21664;BME280;10993;52.510;13.456;2023-03-11T05:02:13;56702.53;;;-146.93;90.32
21664;BME280;10993;52.510;13.456;2023-03-11T05:07:13;56702.53;;;-146.93;90.01
21664;BME280;10993;52.510;13.456;2023-03-11T05:12:14;56682.28;;;-146.93;90.05
21664;BME280;10993;52.510;13.456;2023-03-11T05:17:15;56684.31;;;-146.93;90.66
21664;BME280;10993;52.510;13.456;2023-03-11T05:22:18;56666.06;;;-146.93;90.42
21664;BME280;10993;52.510;13.456;2023-03-11T05:27:19;56637.72;;;-146.93;89.79
21664;BME280;10993;52.510;13.456;2023-03-11T05:32:21;56670.13;;;-146.93;89.69
21664;BME280;10993;52.510;13.456;2023-03-11T05:37:22;56682.28;;;-146.93;89.72
21664;BME280;10993;52.510;13.456;2023-03-11T05:42:22;56649.88;;;-146.93;89.98
21664;BME280;10993;52.510;13.456;2023-03-11T05:47:24;56678.22;;;-146.93;89.92
21664;BME280;10993;52.510;13.456;2023-03-11T05:52:24;56664.06;;;-146.93;89.39
21664;BME280;10993;52.510;13.456;2023-03-11T05:57:25;56690.38;;;-146.93;89.33
21664;BME280;10993;52.510;13.456;2023-03-11T06:02:26;56682.28;;;-146.93;88.90
21664;BME280;10993;52.510;13.456;2023-03-11T06:07:27;56690.38;;;-146.93;88.62
21664;BME280;10993;52.510;13.456;2023-03-11T06:12:27;56666.06;;;-146.93;88.48
21664;BME280;10993;52.510;13.456;2023-03-11T06:17:30;56708.59;;;-146.93;88.42
21664;BME280;10993;52.510;13.456;2023-03-11T06:22:30;56696.44;;;-146.93;88.30
21664;BME280;10993;52.510;13.456;2023-03-11T06:27:31;56678.22;;;-146.93;88.21
21664;BME280;10993;52.510;13.456;2023-03-11T06:32:32;56657.97;;;-146.93;88.38
21664;BME280;10993;52.510;13.456;2023-03-11T06:37:34;56601.28;;;-146.93;88.02
21664;BME280;10993;52.510;13.456;2023-03-11T06:42:35;57180.41;;;-146.93;88.03
21664;BME280;10993;52.510;13.456;2023-03-11T06:47:37;56668.09;;;-146.93;87.95
21664;BME280;10993;52.510;13.456;2023-03-11T06:52:37;56694.41;;;-146.93;87.54
21664;BME280;10993;52.510;13.456;2023-03-11T06:57:37;56649.88;;;-146.93;87.31
21664;BME280;10993;52.510;13.456;2023-03-11T07:02:39;56666.06;;;-146.93;86.61
21664;BME280;10993;52.510;13.456;2023-03-11T07:07:39;56662.03;;;-146.93;85.99
21664;BME280;10993;52.510;13.456;2023-03-11T07:12:40;56682.28;;;-146.93;85.60
21664;BME280;10993;52.510;13.456;2023-03-11T07:17:41;56680.25;;;-146.93;84.95
21664;BME280;10993;52.510;13.456;2023-03-11T07:22:42;56672.16;;;-146.93;84.12
21664;BME280;10993;52.510;13.456;2023-03-11T07:27:42;56657.97;;;-146.93;81.61
21664;BME280;10993;52.510;13.456;2023-03-11T07:32:44;56688.34;;;-146.93;82.03
21664;BME280;10993;52.510;13.456;2023-03-11T07:37:44;56629.63;;;-146.93;81.28
21664;BME280;10993;52.510;13.456;2023-03-11T07:42:44;56674.19;;;-146.93;80.96
21664;BME280;10993;52.510;13.456;2023-03-11T07:47:46;56627.59;;;-146.93;80.33
21664;BME280;10993;52.510;13.456;2023-03-11T07:52:47;56674.19;;;-146.93;79.15
21664;BME280;10993;52.510;13.456;2023-03-11T07:57:47;56570.91;;;-146.93;75.28
21664;BME280;10993;52.510;13.456;2023-03-11T08:02:49;56617.47;;;-146.93;75.40
21664;BME280;10993;52.510;13.456;2023-03-11T08:07:50;56649.88;;;-146.93;69.43
21664;BME280;10993;52.510;13.456;2023-03-11T08:12:51;56649.88;;;-146.93;68.44
21664;BME280;10993;52.510;13.456;2023-03-11T08:17:52;56653.94;;;-146.93;71.90
21664;BME280;10993;52.510;13.456;2023-03-11T08:22:53;56670.13;;;-146.93;68.26
21664;BME280;10993;52.510;13.456;2023-03-11T08:27:54;56637.72;;;-146.93;65.07
21664;BME280;10993;52.510;13.456;2023-03-11T08:32:56;56611.41;;;-146.93;64.34
21664;BME280;10993;52.510;13.456;2023-03-11T08:37:56;56625.59;;;-146.93;60.28
21664;BME280;10993;52.510;13.456;2023-03-11T08:42:56;56682.28;;;-146.93;59.72
21664;BME280;10993;52.510;13.456;2023-03-11T08:47:58;56716.69;;;-146.93;53.35
21664;BME280;10993;52.510;13.456;2023-03-11T08:52:58;56690.38;;;-146.93;47.26
21664;BME280;10993;52.510;13.456;2023-03-11T08:58:02;56609.38;;;-146.93;50.53
21664;BME280;10993;52.510;13.456;2023-03-11T09:03:04;56613.44;;;-146.93;53.73
21664;BME280;10993;52.510;13.456;2023-03-11T09:08:04;56599.25;;;-146.93;54.20
21664;BME280;10993;52.510;13.456;2023-03-11T09:13:05;56591.16;;;-146.93;54.95
21664;BME280;10993;52.510;13.456;2023-03-11T09:18:11;56532.44;;;-146.93;54.93
21664;BME280;10993;52.510;13.456;2023-03-11T09:23:13;56629.63;;;-146.93;56.87
21664;BME280;10993;52.510;13.456;2023-03-11T09:28:14;56623.56;;;-146.93;58.25
21664;BME280;10993;52.510;13.456;2023-03-11T09:33:16;56625.59;;;-146.93;57.00
21664;BME280;10993;52.510;13.456;2023-03-11T09:38:16;56625.59;;;-146.93;60.10
21664;BME280;10993;52.510;13.456;2023-03-11T09:43:28;56637.72;;;-146.93;58.33
21664;BME280;10993;52.510;13.456;2023-03-11T09:48:38;56631.66;;;-146.93;59.85
21664;BME280;10993;52.510;13.456;2023-03-11T09:53:44;56666.06;;;-146.93;56.40
21664;BME280;10993;52.510;13.456;2023-03-11T09:58:46;56621.53;;;-146.93;56.46
21664;BME280;10993;52.510;13.456;2023-03-11T10:03:49;56629.63;;;-146.93;53.03
21664;BME280;10993;52.510;13.456;2023-03-11T10:08:58;56619.50;;;-146.93;51.24
21664;BME280;10993;52.510;13.456;2023-03-11T10:14:06;56613.44;;;-146.93;52.86
21664;BME280;10993;52.510;13.456;2023-03-11T10:19:18;56637.72;;;-146.93;51.23
21664;BME280;10993;52.510;13.456;2023-03-11T10:24:35;56609.38;;;-146.93;50.54
21664;BME280;10993;52.510;13.456;2023-03-11T10:29:49;56657.97;;;-146.93;52.83
21664;BME280;10993;52.510;13.456;2023-03-11T10:34:56;56459.56;;;-146.93;49.93
21664;BME280;10993;52.510;13.456;2023-03-11T10:40:03;56668.09;;;-146.93;49.90
21664;BME280;10993;52.510;13.456;2023-03-11T10:45:11;56536.50;;;-146.93;49.14
21664;BME280;10993;52.510;13.456;2023-03-11T10:50:14;56621.53;;;-146.93;56.08
21664;BME280;10993;52.510;13.456;2023-03-11T10:55:17;56589.13;;;-146.93;53.92
21664;BME280;10993;52.510;13.456;2023-03-11T11:00:27;56649.88;;;-146.93;57.57
21664;BME280;10993;52.510;13.456;2023-03-11T11:05:32;56625.59;;;-146.93;56.04
21664;BME280;10993;52.510;13.456;2023-03-11T11:10:34;56625.59;;;-146.93;58.79
21664;BME280;10993;52.510;13.456;2023-03-11T11:15:36;56550.66;;;-146.93;57.82
21664;BME280;10993;52.510;13.456;2023-03-11T11:20:53;56615.47;;;-146.93;54.03
21664;BME280;10993;52.510;13.456;2023-03-11T11:25:56;56595.22;;;-146.93;56.28
21664;BME280;10993;52.510;13.456;2023-03-11T11:30:59;56591.16;;;-146.93;53.66
21664;BME280;10993;52.510;13.456;2023-03-11T11:36:05;56736.94;;;-146.93;48.20
21664;BME280;10993;52.510;13.456;2023-03-11T11:41:15;56649.88;;;-146.93;45.61
21664;BME280;10993;52.510;13.456;2023-03-11T11:46:20;56619.50;;;-146.93;49.72
21664;BME280;10993;52.510;13.456;2023-03-11T11:51:27;56633.69;;;-146.93;47.15
21664;BME280;10993;52.510;13.456;2023-03-11T11:56:29;56647.84;;;-146.93;47.62
21664;BME280;10993;52.510;13.456;2023-03-11T12:01:38;56692.41;;;-146.93;48.83
21664;BME280;10993;52.510;13.456;2023-03-11T12:06:45;56615.47;;;-146.93;47.05
21664;BME280;10993;52.510;13.456;2023-03-11T12:11:51;56617.47;;;-146.93;47.01
21664;BME280;10993;52.510;13.456;2023-03-11T12:16:56;56609.38;;;-146.93;47.37
21664;BME280;10993;52.510;13.456;2023-03-11T12:22:19;56617.47;;;-146.93;45.92
21664;BME280;10993;52.510;13.456;2023-03-11T12:27:28;56627.59;;;-146.93;46.51
21664;BME280;10993;52.510;13.456;2023-03-11T12:32:33;56617.47;;;-146.93;45.65
21664;BME280;10993;52.510;13.456;2023-03-11T12:37:37;56613.44;;;-146.93;48.56
21664;BME280;10993;52.510;13.456;2023-03-11T12:42:38;56866.53;;;-146.93;49.65
21664;BME280;10993;52.510;13.456;2023-03-11T12:47:39;56609.38;;;-146.93;50.01
21664;BME280;10993;52.510;13.456;2023-03-11T12:52:52;56627.59;;;-146.93;49.65
21664;BME280;10993;52.510;13.456;2023-03-11T12:57:58;56625.59;;;-146.93;49.90
21664;BME280;10993;52.510;13.456;2023-03-11T13:08:35;56605.34;;;-146.93;45.96
21664;BME280;10993;52.510;13.456;2023-03-11T13:13:38;56605.34;;;-146.93;49.25
21664;BME280;10993;52.510;13.456;2023-03-11T13:18:40;56617.47;;;-146.93;51.48
21664;BME280;10993;52.510;13.456;2023-03-11T13:23:42;56643.81;;;-146.93;51.36
21664;BME280;10993;52.510;13.456;2023-03-11T13:29:05;56591.16;;;-146.93;51.11
21664;BME280;10993;52.510;13.456;2023-03-11T13:34:14;56593.19;;;-146.93;49.94
21664;BME280;10993;52.510;13.456;2023-03-11T13:39:35;56585.09;;;-146.93;48.82
21664;BME280;10993;52.510;13.456;2023-03-11T13:44:38;56605.34;;;-146.93;49.20
21664;BME280;10993;52.510;13.456;2023-03-11T13:49:43;57002.19;;;-146.93;48.45
21664;BME280;10993;52.510;13.456;2023-03-11T13:54:48;56591.16;;;-146.93;49.00
21664;BME280;10993;52.510;13.456;2023-03-11T13:59:52;56593.19;;;-146.93;48.40
21664;BME280;10993;52.510;13.456;2023-03-11T14:04:56;56666.06;;;-146.93;48.09
21664;BME280;10993;52.510;13.456;2023-03-11T14:10:18;56581.03;;;-146.93;48.56
21664;BME280;10993;52.510;13.456;2023-03-11T14:15:22;56621.53;;;-146.93;49.04
21664;BME280;10993;52.510;13.456;2023-03-11T14:20:23;56601.28;;;-146.93;50.42
21664;BME280;10993;52.510;13.456;2023-03-11T14:25:29;56605.34;;;-146.93;50.78
21664;BME280;10993;52.510;13.456;2023-03-11T14:30:32;56491.94;;;-146.93;50.38
21664;BME280;10993;52.510;13.456;2023-03-11T14:35:32;56631.66;;;-146.93;52.20
21664;BME280;10993;52.510;13.456;2023-03-11T14:40:35;56629.63;;;-146.93;53.60
21664;BME280;10993;52.510;13.456;2023-03-11T14:45:41;56708.59;;;-146.93;53.66
21664;BME280;10993;52.510;13.456;2023-03-11T14:50:43;56627.59;;;-146.93;53.76
21664;BME280;10993;52.510;13.456;2023-03-11T14:55:50;56605.34;;;-146.93;54.39
21664;BME280;10993;52.510;13.456;2023-03-11T15:00:58;56653.94;;;-146.93;54.98
21664;BME280;10993;52.510;13.456;2023-03-11T15:06:03;56641.78;;;-146.93;55.11
21664;BME280;10993;52.510;13.456;2023-03-11T15:11:18;56627.59;;;-146.93;54.49
21664;BME280;10993;52.510;13.456;2023-03-11T15:16:29;56548.66;;;-146.93;52.78
21664;BME280;10993;52.510;13.456;2023-03-11T15:21:29;56627.59;;;-146.93;52.75
21664;BME280;10993;52.510;13.456;2023-03-11T15:26:33;56629.63;;;-146.93;52.81
21664;BME280;10993;52.510;13.456;2023-03-11T15:31:36;56651.91;;;-146.93;50.57
21664;BME280;10993;52.510;13.456;2023-03-11T15:36:38;56493.97;;;-146.93;51.23
21664;BME280;10993;52.510;13.456;2023-03-11T15:41:40;56603.31;;;-146.93;51.03
21664;BME280;10993;52.510;13.456;2023-03-11T15:46:41;56617.47;;;-146.93;51.44
21664;BME280;10993;52.510;13.456;2023-03-11T15:51:41;56607.34;;;-146.93;52.49
21664;BME280;10993;52.510;13.456;2023-03-11T15:56:44;56611.41;;;-146.93;52.43
21664;BME280;10993;52.510;13.456;2023-03-11T16:01:44;56619.50;;;-146.93;52.64
21664;BME280;10993;52.510;13.456;2023-03-11T16:06:47;56601.28;;;-146.93;53.24
21664;BME280;10993;52.510;13.456;2023-03-11T16:11:49;56662.03;;;-146.93;54.06
21664;BME280;10993;52.510;13.456;2023-03-11T16:16:49;56619.50;;;-146.93;54.01
21664;BME280;10993;52.510;13.456;2023-03-11T16:21:50;56625.59;;;-146.93;51.69
21664;BME280;10993;52.510;13.456;2023-03-11T16:26:51;56609.38;;;-146.93;50.82
21664;BME280;10993;52.510;13.456;2023-03-11T16:31:52;56607.34;;;-146.93;51.36
21664;BME280;10993;52.510;13.456;2023-03-11T16:36:54;56605.34;;;-146.93;51.12
21664;BME280;10993;52.510;13.456;2023-03-11T16:41:56;56641.78;;;-146.93;52.08
21664;BME280;10993;52.510;13.456;2023-03-11T16:46:56;56651.91;;;-146.93;53.20
21664;BME280;10993;52.510;13.456;2023-03-11T16:51:56;56639.75;;;-146.93;53.81
21664;BME280;10993;52.510;13.456;2023-03-11T16:56:58;56609.38;;;-146.93;53.62
21664;BME280;10993;52.510;13.456;2023-03-11T17:01:58;56641.78;;;-146.93;53.95
21664;BME280;10993;52.510;13.456;2023-03-11T17:06:59;56645.81;;;-146.93;54.77
21664;BME280;10993;52.510;13.456;2023-03-11T17:12:01;56647.84;;;-146.93;54.57
21664;BME280;10993;52.510;13.456;2023-03-11T17:17:02;56633.69;;;-146.93;55.94
21664;BME280;10993;52.510;13.456;2023-03-11T17:22:02;56666.06;;;-146.93;56.32
21664;BME280;10993;52.510;13.456;2023-03-11T17:27:04;56639.75;;;-146.93;57.36
21664;BME280;10993;52.510;13.456;2023-03-11T17:32:06;56639.75;;;-146.93;57.90
21664;BME280;10993;52.510;13.456;2023-03-11T17:37:07;56487.91;;;-146.93;58.95
21664;BME280;10993;52.510;13.456;2023-03-11T17:42:09;56483.84;;;-146.93;59.54
21664;BME280;10993;52.510;13.456;2023-03-11T17:47:09;56647.84;;;-146.93;59.56
21664;BME280;10993;52.510;13.456;2023-03-11T17:52:10;56641.78;;;-146.93;59.90
21664;BME280;10993;52.510;13.456;2023-03-11T17:57:13;56621.53;;;-146.93;60.57
21664;BME280;10993;52.510;13.456;2023-03-11T18:02:13;56633.69;;;-146.93;61.66
21664;BME280;10993;52.510;13.456;2023-03-11T18:07:14;56629.63;;;-146.93;62.95
21664;BME280;10993;52.510;13.456;2023-03-11T18:12:15;56625.59;;;-146.93;63.37
21664;BME280;10993;52.510;13.456;2023-03-11T18:17:16;56564.84;;;-146.93;63.55
21664;BME280;10993;52.510;13.456;2023-03-11T18:22:16;56660.00;;;-146.93;63.36
21664;BME280;10993;52.510;13.456;2023-03-11T18:27:18;56601.28;;;-146.93;64.48
21664;BME280;10993;52.510;13.456;2023-03-11T18:32:19;56660.00;;;-146.93;65.18
21664;BME280;10993;52.510;13.456;2023-03-11T18:37:19;56641.78;;;-146.93;65.00
21664;BME280;10993;52.510;13.456;2023-03-11T18:42:21;56645.81;;;-146.93;65.14
21664;BME280;10993;52.510;13.456;2023-03-11T18:47:21;56617.47;;;-146.93;65.26
21664;BME280;10993;52.510;13.456;2023-03-11T18:52:22;56668.09;;;-146.93;66.12
21664;BME280;10993;52.510;13.456;2023-03-11T18:57:23;56643.81;;;-146.93;66.19
21664;BME280;10993;52.510;13.456;2023-03-11T19:02:24;56680.25;;;-146.93;67.06
21664;BME280;10993;52.510;13.456;2023-03-11T19:07:26;56688.34;;;-146.93;66.75
21664;BME280;10993;52.510;13.456;2023-03-11T19:12:29;56653.94;;;-146.93;66.99
21664;BME280;10993;52.510;13.456;2023-03-11T19:17:32;56653.94;;;-146.93;67.01
21664;BME280;10993;52.510;13.456;2023-03-11T19:22:33;56670.13;;;-146.93;67.04
21664;BME280;10993;52.510;13.456;2023-03-11T19:27:34;56643.81;;;-146.93;66.89
21664;BME280;10993;52.510;13.456;2023-03-11T19:32:38;56678.22;;;-146.93;67.23
21664;BME280;10993;52.510;13.456;2023-03-11T19:37:38;56682.28;;;-146.93;67.64
21664;BME280;10993;52.510;13.456;2023-03-11T19:42:40;56629.63;;;-146.93;67.22
21664;BME280;10993;52.510;13.456;2023-03-11T19:47:41;56653.94;;;-146.93;67.59
21664;BME280;10993;52.510;13.456;2023-03-11T19:52:44;57401.16;;;-146.93;67.42
21664;BME280;10993;52.510;13.456;2023-03-11T19:57:46;56657.97;;;-146.93;67.78
21664;BME280;10993;52.510;13.456;2023-03-11T20:02:46;56700.50;;;-146.93;68.13
21664;BME280;10993;52.510;13.456;2023-03-11T20:07:47;56655.94;;;-146.93;67.97
21664;BME280;10993;52.510;13.456;2023-03-11T20:12:48;56670.13;;;-146.93;67.85
21664;BME280;10993;52.510;13.456;2023-03-11T20:17:49;56668.09;;;-146.93;67.73
21664;BME280;10993;52.510;13.456;2023-03-11T20:22:49;56655.94;;;-146.93;68.07
21664;BME280;10993;52.510;13.456;2023-03-11T20:27:51;56660.00;;;-146.93;67.82
21664;BME280;10993;52.510;13.456;2023-03-11T20:32:52;56591.16;;;-146.93;66.85
21664;BME280;10993;52.510;13.456;2023-03-11T20:37:53;56660.00;;;-146.93;67.35
21664;BME280;10993;52.510;13.456;2023-03-11T20:42:55;56690.38;;;-146.93;67.51
21664;BME280;10993;52.510;13.456;2023-03-11T20:47:55;56662.03;;;-146.93;66.75
21664;BME280;10993;52.510;13.456;2023-03-11T20:52:56;56579.00;;;-146.93;66.53
21664;BME280;10993;52.510;13.456;2023-03-11T20:57:57;56649.88;;;-146.93;65.77
21664;BME280;10993;52.510;13.456;2023-03-11T21:02:58;56668.09;;;-146.93;65.87
21664;BME280;10993;52.510;13.456;2023-03-11T21:07:58;56643.81;;;-146.93;65.26
21664;BME280;10993;52.510;13.456;2023-03-11T21:13:00;56680.25;;;-146.93;65.06
21664;BME280;10993;52.510;13.456;2023-03-11T21:18:00;56690.38;;;-146.93;65.18
21664;BME280;10993;52.510;13.456;2023-03-11T21:23:01;56688.34;;;-146.93;65.70
21664;BME280;10993;52.510;13.456;2023-03-11T21:28:03;56682.28;;;-146.93;65.51
21664;BME280;10993;52.510;13.456;2023-03-11T21:33:03;56698.47;;;-146.93;65.28
21664;BME280;10993;52.510;13.456;2023-03-11T21:38:04;56684.31;;;-146.93;65.25
21664;BME280;10993;52.510;13.456;2023-03-11T21:43:05;56680.25;;;-146.93;64.14
21664;BME280;10993;52.510;13.456;2023-03-11T21:48:06;56625.59;;;-146.93;64.87
21664;BME280;10993;52.510;13.456;2023-03-11T21:53:08;56678.22;;;-146.93;64.77
21664;BME280;10993;52.510;13.456;2023-03-11T21:58:09;56645.81;;;-146.93;64.96
21664;BME280;10993;52.510;13.456;2023-03-11T22:03:10;56657.97;;;-146.93;64.16
21664;BME280;10993;52.510;13.456;2023-03-11T22:08:10;56678.22;;;-146.93;64.01
21664;BME280;10993;52.510;13.456;2023-03-11T22:13:15;56676.19;;;-146.93;64.46
21664;BME280;10993;52.510;13.456;2023-03-11T22:18:15;56635.72;;;-146.93;63.78
21664;BME280;10993;52.510;13.456;2023-03-11T22:23:15;56651.91;;;-146.93;64.19
21664;BME280;10993;52.510;13.456;2023-03-11T22:28:17;56641.78;;;-146.93;63.97
21664;BME280;10993;52.510;13.456;2023-03-11T22:33:17;56540.53;;;-146.93;63.94
21664;BME280;10993;52.510;13.456;2023-03-11T22:38:19;56564.84;;;-146.93;64.10
21664;BME280;10993;52.510;13.456;2023-03-11T22:43:21;56670.13;;;-146.93;63.45
21664;BME280;10993;52.510;13.456;2023-03-11T22:48:22;56678.22;;;-146.93;62.98
21664;BME280;10993;52.510;13.456;2023-03-11T22:53:22;56589.13;;;-146.93;62.98
21664;BME280;10993;52.510;13.456;2023-03-11T22:58:25;56607.34;;;-146.93;62.94
21664;BME280;10993;52.510;13.456;2023-03-11T23:03:26;56613.44;;;-146.93;62.80
21664;BME280;10993;52.510;13.456;2023-03-11T23:08:26;56678.22;;;-146.93;62.53
21664;BME280;10993;52.510;13.456;2023-03-11T23:13:28;56593.19;;;-146.93;63.41
21664;BME280;10993;52.510;13.456;2023-03-11T23:18:29;56581.03;;;-146.93;63.36
21664;BME280;10993;52.510;13.456;2023-03-11T23:23:30;56690.38;;;-146.93;63.46
21664;BME280;10993;52.510;13.456;2023-03-11T23:28:31;56500.06;;;-146.93;63.73
21664;BME280;10993;52.510;13.456;2023-03-11T23:33:32;56631.66;;;-146.93;63.52
21664;BME280;10993;52.510;13.456;2023-03-11T23:38:33;56682.28;;;-146.93;64.10
21664;BME280;10993;52.510;13.456;2023-03-11T23:43:34;56678.22;;;-146.93;63.98
21664;BME280;10993;52.510;13.456;2023-03-11T23:48:35;56694.41;;;-146.93;64.94
21664;BME280;10993;52.510;13.456;2023-03-11T23:53:36;56526.38;;;-146.93;64.64
21664;BME280;10993;52.510;13.456;2023-03-11T23:58:38;56698.47;;;-146.93;65.26
